sensor_id;sensor_type;location;lat;lon;timestamp;P1;durP1;ratioP1;P2;durP2;ratioP2
77217;SDS011;66214;51.302;17.068;2024-03-23T05:03:59;19.90;;;9.90;;
77217;SDS011;66214;51.302;17.068;2024-03-23T05:06:27;21.60;;;10.80;;
77217;SDS011;66214;51.302;17.068;2024-03-23T05:08:55;23.50;;;11.50;;
77217;SDS011;66214;51.302;17.068;2024-03-23T05:11:23;20.10;;;9.60;;
77217;SDS011;66214;51.302;17.068;2024-03-23T05:13:50;21.90;;;10.60;;
77217;SDS011;66214;51.302;17.068;2024-03-23T05:16:18;20.80;;;11.10;;
77217;SDS011;66214;51.302;17.068;2024-03-23T05:18:46;21.70;;;10.90;;
77217;SDS011;66214;51.302;17.068;2024-03-23T05:21:14;19.30;;;10.40;;
77217;SDS011;66214;51.302;17.068;2024-03-23T05:23:42;23.50;;;11.70;;
77217;SDS011;66214;51.302;17.068;2024-03-23T05:26:11;24.50;;;10.90;;
77217;SDS011;66214;51.302;17.068;2024-03-23T05:28:38;24.30;;;10.90;;
77217;SDS011;66214;51.302;17.068;2024-03-23T05:31:07;19.70;;;10.10;;
77217;SDS011;66214;51.302;17.068;2024-03-23T05:33:36;19.80;;;9.90;;
77217;SDS011;66214;51.302;17.068;2024-03-23T05:36:07;21.40;;;10.80;;
77217;SDS011;66214;51.302;17.068;2024-03-23T05:38:38;19.20;;;9.30;;
77217;SDS011;66214;51.302;17.068;2024-03-23T05:41:06;24.40;;;12.80;;
77217;SDS011;66214;51.302;17.068;2024-03-23T05:43:34;25.70;;;11.20;;
77217;SDS011;66214;51.302;17.068;2024-03-23T05:46:02;23.10;;;10.60;;
77217;SDS011;66214;51.302;17.068;2024-03-23T05:48:32;22.20;;;11.40;;
77217;SDS011;66214;51.302;17.068;2024-03-23T05:51:00;22.70;;;11.50;;
77217;SDS011;66214;51.302;17.068;2024-03-23T05:53:28;24.20;;;11.30;;
77217;SDS011;66214;51.302;17.068;2024-03-23T05:56:02;23.40;;;11.70;;
77217;SDS011;66214;51.302;17.068;2024-03-23T05:58:37;21.90;;;9.60;;
77217;SDS011;66214;51.302;17.068;2024-03-23T06:01:05;23.00;;;11.50;;
77217;SDS011;66214;51.302;17.068;2024-03-23T06:03:32;24.00;;;11.20;;
77217;SDS011;66214;51.302;17.068;2024-03-23T06:06:00;25.50;;;11.90;;
77217;SDS011;66214;51.302;17.068;2024-03-23T06:08:28;20.40;;;9.90;;
77217;SDS011;66214;51.302;17.068;2024-03-23T06:10:56;24.80;;;11.60;;
77217;SDS011;66214;51.302;17.068;2024-03-23T06:13:24;19.30;;;9.60;;
77217;SDS011;66214;51.302;17.068;2024-03-23T06:15:57;22.30;;;11.10;;
77217;SDS011;66214;51.302;17.068;2024-03-23T06:18:26;22.20;;;11.40;;
77217;SDS011;66214;51.302;17.068;2024-03-23T06:20:54;20.40;;;10.20;;
77217;SDS011;66214;51.302;17.068;2024-03-23T06:23:22;24.20;;;12.40;;
77217;SDS011;66214;51.302;17.068;2024-03-23T06:25:50;21.60;;;11.20;;
77217;SDS011;66214;51.302;17.068;2024-03-23T06:28:18;21.60;;;10.70;;
77217;SDS011;66214;51.302;17.068;2024-03-23T06:30:46;22.30;;;11.20;;
77217;SDS011;66214;51.302;17.068;2024-03-23T06:33:14;19.70;;;10.20;;
77217;SDS011;66214;51.302;17.068;2024-03-23T06:35:42;22.90;;;10.50;;
77217;SDS011;66214;51.302;17.068;2024-03-23T06:38:10;21.10;;;10.90;;
77217;SDS011;66214;51.302;17.068;2024-03-23T06:40:38;24.30;;;11.40;;
77217;SDS011;66214;51.302;17.068;2024-03-23T06:43:06;20.20;;;10.80;;
77217;SDS011;66214;51.302;17.068;2024-03-23T06:45:34;22.80;;;11.70;;
77217;SDS011;66214;51.302;17.068;2024-03-23T06:48:02;23.60;;;12.00;;
77217;SDS011;66214;51.302;17.068;2024-03-23T06:50:31;22.40;;;12.00;;
77217;SDS011;66214;51.302;17.068;2024-03-23T06:52:59;23.30;;;12.00;;
77217;SDS011;66214;51.302;17.068;2024-03-23T06:55:29;22.00;;;11.50;;
77217;SDS011;66214;51.302;17.068;2024-03-23T06:57:57;24.60;;;12.50;;
77217;SDS011;66214;51.302;17.068;2024-03-23T07:00:25;29.10;;;14.10;;
77217;SDS011;66214;51.302;17.068;2024-03-23T07:02:53;24.40;;;11.60;;
77217;SDS011;66214;51.302;17.068;2024-03-23T07:05:21;19.00;;;9.40;;
77217;SDS011;66214;51.302;17.068;2024-03-23T07:07:49;23.10;;;11.40;;
77217;SDS011;66214;51.302;17.068;2024-03-23T07:10:17;20.20;;;10.70;;
77217;SDS011;66214;51.302;17.068;2024-03-23T07:12:45;21.70;;;11.90;;
77217;SDS011;66214;51.302;17.068;2024-03-23T07:15:14;20.90;;;10.60;;
77217;SDS011;66214;51.302;17.068;2024-03-23T07:17:41;17.40;;;9.30;;
77217;SDS011;66214;51.302;17.068;2024-03-23T07:20:10;20.90;;;9.50;;
77217;SDS011;66214;51.302;17.068;2024-03-23T07:22:39;19.90;;;10.00;;
77217;SDS011;66214;51.302;17.068;2024-03-23T07:25:07;21.70;;;11.00;;
77217;SDS011;66214;51.302;17.068;2024-03-23T07:27:35;15.20;;;7.30;;
77217;SDS011;66214;51.302;17.068;2024-03-23T07:30:03;20.30;;;10.70;;
77217;SDS011;66214;51.302;17.068;2024-03-23T07:35:48;21.70;;;11.00;;
77217;SDS011;66214;51.302;17.068;2024-03-23T07:38:16;20.70;;;11.40;;
77217;SDS011;66214;51.302;17.068;2024-03-23T07:40:44;23.00;;;12.30;;
77217;SDS011;66214;51.302;17.068;2024-03-23T07:43:12;22.20;;;11.60;;
77217;SDS011;66214;51.302;17.068;2024-03-23T07:45:40;23.20;;;12.90;;
77217;SDS011;66214;51.302;17.068;2024-03-23T07:48:07;23.70;;;12.40;;
77217;SDS011;66214;51.302;17.068;2024-03-23T07:50:35;20.10;;;11.80;;
77217;SDS011;66214;51.302;17.068;2024-03-23T07:53:03;20.20;;;9.90;;
77217;SDS011;66214;51.302;17.068;2024-03-23T07:55:31;18.90;;;9.50;;
77217;SDS011;66214;51.302;17.068;2024-03-23T07:57:59;17.70;;;10.20;;
77217;SDS011;66214;51.302;17.068;2024-03-23T08:03:59;17.40;;;10.00;;
77217;SDS011;66214;51.302;17.068;2024-03-23T08:06:27;17.70;;;9.00;;
77217;SDS011;66214;51.302;17.068;2024-03-23T08:08:57;17.70;;;9.90;;
77217;SDS011;66214;51.302;17.068;2024-03-23T08:11:30;18.80;;;10.10;;
77217;SDS011;66214;51.302;17.068;2024-03-23T08:13:59;18.20;;;10.20;;
77217;SDS011;66214;51.302;17.068;2024-03-23T08:16:27;20.20;;;9.90;;
77217;SDS011;66214;51.302;17.068;2024-03-23T08:18:55;18.80;;;10.90;;
77217;SDS011;66214;51.302;17.068;2024-03-23T08:21:23;17.20;;;9.80;;
77217;SDS011;66214;51.302;17.068;2024-03-23T08:23:53;14.20;;;7.60;;
77217;SDS011;66214;51.302;17.068;2024-03-23T08:26:21;17.80;;;10.20;;
77217;SDS011;66214;51.302;17.068;2024-03-23T08:28:49;17.10;;;8.20;;
77217;SDS011;66214;51.302;17.068;2024-03-23T08:31:17;17.00;;;10.10;;
77217;SDS011;66214;51.302;17.068;2024-03-23T08:33:45;19.30;;;10.60;;
77217;SDS011;66214;51.302;17.068;2024-03-23T08:36:13;15.70;;;9.20;;
77217;SDS011;66214;51.302;17.068;2024-03-23T08:38:44;18.30;;;10.90;;
77217;SDS011;66214;51.302;17.068;2024-03-23T08:41:12;18.60;;;10.00;;
77217;SDS011;66214;51.302;17.068;2024-03-23T08:43:41;18.50;;;9.90;;
77217;SDS011;66214;51.302;17.068;2024-03-23T08:46:11;18.60;;;10.80;;
77217;SDS011;66214;51.302;17.068;2024-03-23T08:48:44;14.20;;;7.60;;
77217;SDS011;66214;51.302;17.068;2024-03-23T08:51:14;18.70;;;9.70;;
77217;SDS011;66214;51.302;17.068;2024-03-23T08:53:45;16.70;;;8.20;;
77217;SDS011;66214;51.302;17.068;2024-03-23T08:56:13;19.10;;;10.00;;
77217;SDS011;66214;51.302;17.068;2024-03-23T08:58:41;19.40;;;10.80;;
77217;SDS011;66214;51.302;17.068;2024-03-23T09:01:10;16.80;;;9.50;;
77217;SDS011;66214;51.302;17.068;2024-03-23T09:03:41;18.10;;;10.20;;
77217;SDS011;66214;51.302;17.068;2024-03-23T09:06:14;15.70;;;9.10;;
77217;SDS011;66214;51.302;17.068;2024-03-23T09:08:42;16.70;;;9.70;;
77217;SDS011;66214;51.302;17.068;2024-03-23T09:11:12;17.00;;;9.70;;
77217;SDS011;66214;51.302;17.068;2024-03-23T09:13:41;16.20;;;8.60;;
77217;SDS011;66214;51.302;17.068;2024-03-23T09:19:41;18.60;;;9.70;;
77217;SDS011;66214;51.302;17.068;2024-03-23T09:22:09;19.00;;;9.70;;
77217;SDS011;66214;51.302;17.068;2024-03-23T09:24:38;17.80;;;10.10;;
77217;SDS011;66214;51.302;17.068;2024-03-23T09:27:07;16.80;;;9.00;;
77217;SDS011;66214;51.302;17.068;2024-03-23T09:29:35;15.70;;;8.70;;
77217;SDS011;66214;51.302;17.068;2024-03-23T09:32:04;16.70;;;9.20;;
77217;SDS011;66214;51.302;17.068;2024-03-23T09:34:34;16.50;;;9.60;;
77217;SDS011;66214;51.302;17.068;2024-03-23T09:37:02;17.80;;;9.30;;
77217;SDS011;66214;51.302;17.068;2024-03-23T09:39:30;15.60;;;8.70;;
77217;SDS011;66214;51.302;17.068;2024-03-23T09:42:00;16.00;;;8.50;;
77217;SDS011;66214;51.302;17.068;2024-03-23T09:44:28;16.30;;;8.90;;
77217;SDS011;66214;51.302;17.068;2024-03-23T09:46:57;13.80;;;8.00;;
77217;SDS011;66214;51.302;17.068;2024-03-23T09:49:25;18.50;;;9.90;;
77217;SDS011;66214;51.302;17.068;2024-03-23T09:51:53;15.40;;;8.20;;
77217;SDS011;66214;51.302;17.068;2024-03-23T09:54:24;16.30;;;8.80;;
77217;SDS011;66214;51.302;17.068;2024-03-23T09:56:52;13.40;;;7.20;;
77217;SDS011;66214;51.302;17.068;2024-03-23T09:59:20;15.10;;;8.30;;
77217;SDS011;66214;51.302;17.068;2024-03-23T10:01:49;15.70;;;9.10;;
77217;SDS011;66214;51.302;17.068;2024-03-23T10:04:37;16.30;;;8.40;;
77217;SDS011;66214;51.302;17.068;2024-03-23T10:07:14;15.90;;;8.50;;
77217;SDS011;66214;51.302;17.068;2024-03-23T10:09:45;16.50;;;9.10;;
77217;SDS011;66214;51.302;17.068;2024-03-23T10:12:17;14.00;;;7.80;;
77217;SDS011;66214;51.302;17.068;2024-03-23T10:14:47;16.40;;;8.60;;
77217;SDS011;66214;51.302;17.068;2024-03-23T10:17:16;13.10;;;6.90;;
77217;SDS011;66214;51.302;17.068;2024-03-23T10:19:46;15.90;;;8.10;;
77217;SDS011;66214;51.302;17.068;2024-03-23T10:22:22;15.20;;;7.40;;
77217;SDS011;66214;51.302;17.068;2024-03-23T10:24:51;15.30;;;7.70;;
77217;SDS011;66214;51.302;17.068;2024-03-23T10:27:20;13.80;;;7.20;;
77217;SDS011;66214;51.302;17.068;2024-03-23T10:29:49;16.10;;;9.50;;
77217;SDS011;66214;51.302;17.068;2024-03-23T10:32:18;18.40;;;8.60;;
77217;SDS011;66214;51.302;17.068;2024-03-23T10:34:46;16.20;;;10.10;;
77217;SDS011;66214;51.302;17.068;2024-03-23T10:37:14;17.40;;;10.60;;
77217;SDS011;66214;51.302;17.068;2024-03-23T10:39:43;17.40;;;10.80;;
77217;SDS011;66214;51.302;17.068;2024-03-23T10:42:11;15.30;;;9.90;;
77217;SDS011;66214;51.302;17.068;2024-03-23T10:44:38;15.90;;;8.80;;
77217;SDS011;66214;51.302;17.068;2024-03-23T10:47:06;16.60;;;8.70;;
77217;SDS011;66214;51.302;17.068;2024-03-23T10:49:35;14.10;;;8.40;;
77217;SDS011;66214;51.302;17.068;2024-03-23T10:52:04;15.10;;;8.10;;
77217;SDS011;66214;51.302;17.068;2024-03-23T10:54:33;13.80;;;8.20;;
77217;SDS011;66214;51.302;17.068;2024-03-23T10:57:05;17.40;;;8.70;;
77217;SDS011;66214;51.302;17.068;2024-03-23T10:59:37;14.40;;;7.20;;
77217;SDS011;66214;51.302;17.068;2024-03-23T11:03:58;16.10;;;9.00;;
77217;SDS011;66214;51.302;17.068;2024-03-23T11:06:37;15.30;;;9.40;;
77217;SDS011;66214;51.302;17.068;2024-03-23T11:17:22;15.30;;;8.80;;
77217;SDS011;66214;51.302;17.068;2024-03-23T11:20:05;13.40;;;8.50;;
77217;SDS011;66214;51.302;17.068;2024-03-23T11:22:47;14.60;;;7.90;;
77217;SDS011;66214;51.302;17.068;2024-03-23T11:25:18;12.20;;;7.70;;
77217;SDS011;66214;51.302;17.068;2024-03-23T11:27:55;14.80;;;8.60;;
77217;SDS011;66214;51.302;17.068;2024-03-23T11:30:26;14.50;;;8.70;;
77217;SDS011;66214;51.302;17.068;2024-03-23T11:32:58;15.00;;;9.10;;
77217;SDS011;66214;51.302;17.068;2024-03-23T11:35:32;12.60;;;7.00;;
77217;SDS011;66214;51.302;17.068;2024-03-23T11:38:21;14.60;;;8.40;;
77217;SDS011;66214;51.302;17.068;2024-03-23T11:40:49;13.20;;;8.40;;
77217;SDS011;66214;51.302;17.068;2024-03-23T11:43:19;13.00;;;8.40;;
77217;SDS011;66214;51.302;17.068;2024-03-23T11:45:50;13.00;;;8.20;;
77217;SDS011;66214;51.302;17.068;2024-03-23T11:48:21;12.90;;;7.60;;
77217;SDS011;66214;51.302;17.068;2024-03-23T11:50:56;11.20;;;6.70;;
77217;SDS011;66214;51.302;17.068;2024-03-23T11:53:25;12.80;;;7.60;;
77217;SDS011;66214;51.302;17.068;2024-03-23T11:55:58;15.80;;;8.40;;
77217;SDS011;66214;51.302;17.068;2024-03-23T11:58:27;16.00;;;8.90;;
77217;SDS011;66214;51.302;17.068;2024-03-23T12:01:02;12.20;;;8.00;;
77217;SDS011;66214;51.302;17.068;2024-03-23T12:03:31;14.00;;;8.30;;
77217;SDS011;66214;51.302;17.068;2024-03-23T12:06:04;12.90;;;7.40;;
77217;SDS011;66214;51.302;17.068;2024-03-23T12:08:34;14.20;;;8.70;;
77217;SDS011;66214;51.302;17.068;2024-03-23T12:13:39;8.80;;;4.70;;
77217;SDS011;66214;51.302;17.068;2024-03-23T12:16:14;11.60;;;6.00;;
77217;SDS011;66214;51.302;17.068;2024-03-23T12:18:48;13.30;;;7.00;;
77217;SDS011;66214;51.302;17.068;2024-03-23T12:21:17;11.30;;;6.90;;
77217;SDS011;66214;51.302;17.068;2024-03-23T12:23:45;12.10;;;6.60;;
77217;SDS011;66214;51.302;17.068;2024-03-23T12:26:16;11.90;;;6.60;;
77217;SDS011;66214;51.302;17.068;2024-03-23T12:28:45;11.60;;;5.90;;
77217;SDS011;66214;51.302;17.068;2024-03-23T12:31:13;12.40;;;6.00;;
77217;SDS011;66214;51.302;17.068;2024-03-23T12:33:42;11.30;;;6.40;;
77217;SDS011;66214;51.302;17.068;2024-03-23T12:39:32;11.40;;;6.10;;
77217;SDS011;66214;51.302;17.068;2024-03-23T12:42:03;11.90;;;6.30;;
77217;SDS011;66214;51.302;17.068;2024-03-23T12:44:32;10.10;;;6.00;;
77217;SDS011;66214;51.302;17.068;2024-03-23T12:47:00;10.50;;;6.20;;
77217;SDS011;66214;51.302;17.068;2024-03-23T12:49:28;10.00;;;5.90;;
77217;SDS011;66214;51.302;17.068;2024-03-23T12:52:00;11.60;;;6.60;;
77217;SDS011;66214;51.302;17.068;2024-03-23T12:54:29;11.80;;;7.10;;
77217;SDS011;66214;51.302;17.068;2024-03-23T12:56:58;12.20;;;7.00;;
77217;SDS011;66214;51.302;17.068;2024-03-23T12:59:28;14.40;;;8.40;;
77217;SDS011;66214;51.302;17.068;2024-03-23T13:01:56;13.10;;;7.60;;
77217;SDS011;66214;51.302;17.068;2024-03-23T13:04:24;13.10;;;7.40;;
77217;SDS011;66214;51.302;17.068;2024-03-23T13:06:52;11.20;;;7.10;;
77217;SDS011;66214;51.302;17.068;2024-03-23T13:09:20;9.10;;;5.10;;
77217;SDS011;66214;51.302;17.068;2024-03-23T13:11:48;8.00;;;4.10;;
77217;SDS011;66214;51.302;17.068;2024-03-23T13:14:17;8.20;;;4.40;;
77217;SDS011;66214;51.302;17.068;2024-03-23T13:16:45;8.00;;;4.30;;
77217;SDS011;66214;51.302;17.068;2024-03-23T13:19:13;9.60;;;5.20;;
77217;SDS011;66214;51.302;17.068;2024-03-23T13:21:40;10.60;;;5.20;;
77217;SDS011;66214;51.302;17.068;2024-03-23T13:27:39;10.20;;;5.50;;
77217;SDS011;66214;51.302;17.068;2024-03-23T13:30:08;10.50;;;5.40;;
77217;SDS011;66214;51.302;17.068;2024-03-23T13:32:37;8.70;;;4.70;;
77217;SDS011;66214;51.302;17.068;2024-03-23T13:35:06;9.70;;;4.80;;
77217;SDS011;66214;51.302;17.068;2024-03-23T13:37:34;11.40;;;5.30;;
77217;SDS011;66214;51.302;17.068;2024-03-23T13:40:10;7.90;;;4.30;;
77217;SDS011;66214;51.302;17.068;2024-03-23T13:42:38;8.80;;;4.20;;
77217;SDS011;66214;51.302;17.068;2024-03-23T13:45:06;7.50;;;3.70;;
77217;SDS011;66214;51.302;17.068;2024-03-23T13:47:34;8.30;;;3.30;;
77217;SDS011;66214;51.302;17.068;2024-03-23T13:50:03;6.50;;;3.00;;
77217;SDS011;66214;51.302;17.068;2024-03-23T13:52:31;7.00;;;3.00;;
77217;SDS011;66214;51.302;17.068;2024-03-23T13:54:59;6.60;;;2.90;;
77217;SDS011;66214;51.302;17.068;2024-03-23T13:57:27;6.00;;;2.40;;
77217;SDS011;66214;51.302;17.068;2024-03-23T13:59:55;7.30;;;2.40;;
77217;SDS011;66214;51.302;17.068;2024-03-23T14:03:58;6.70;;;2.90;;
77217;SDS011;66214;51.302;17.068;2024-03-23T14:06:26;4.70;;;2.00;;
77217;SDS011;66214;51.302;17.068;2024-03-23T14:08:54;3.30;;;1.30;;
77217;SDS011;66214;51.302;17.068;2024-03-23T14:11:22;6.30;;;1.60;;
77217;SDS011;66214;51.302;17.068;2024-03-23T14:13:50;3.90;;;1.60;;
77217;SDS011;66214;51.302;17.068;2024-03-23T14:16:18;4.90;;;1.50;;
77217;SDS011;66214;51.302;17.068;2024-03-23T14:18:47;4.90;;;2.10;;
77217;SDS011;66214;51.302;17.068;2024-03-23T14:21:15;4.70;;;2.50;;
77217;SDS011;66214;51.302;17.068;2024-03-23T14:23:43;7.50;;;3.50;;
77217;SDS011;66214;51.302;17.068;2024-03-23T14:26:11;4.80;;;2.30;;
77217;SDS011;66214;51.302;17.068;2024-03-23T14:28:39;5.30;;;2.40;;
77217;SDS011;66214;51.302;17.068;2024-03-23T14:31:07;4.40;;;2.00;;
77217;SDS011;66214;51.302;17.068;2024-03-23T14:33:39;3.50;;;1.60;;
77217;SDS011;66214;51.302;17.068;2024-03-23T14:36:14;4.50;;;2.10;;
77217;SDS011;66214;51.302;17.068;2024-03-23T14:38:42;3.60;;;1.60;;
77217;SDS011;66214;51.302;17.068;2024-03-23T14:41:10;3.20;;;1.50;;
77217;SDS011;66214;51.302;17.068;2024-03-23T14:43:38;3.70;;;1.60;;
77217;SDS011;66214;51.302;17.068;2024-03-23T14:46:13;5.30;;;2.60;;
77217;SDS011;66214;51.302;17.068;2024-03-23T14:48:44;5.60;;;2.80;;
77217;SDS011;66214;51.302;17.068;2024-03-23T14:51:13;7.80;;;2.70;;
77217;SDS011;66214;51.302;17.068;2024-03-23T14:53:45;4.80;;;2.30;;
77217;SDS011;66214;51.302;17.068;2024-03-23T14:56:13;5.20;;;2.60;;
77217;SDS011;66214;51.302;17.068;2024-03-23T14:58:43;5.00;;;2.50;;
77217;SDS011;66214;51.302;17.068;2024-03-23T15:01:13;8.80;;;4.20;;
77217;SDS011;66214;51.302;17.068;2024-03-23T15:06:57;2.50;;;1.30;;
77217;SDS011;66214;51.302;17.068;2024-03-23T15:09:25;3.80;;;1.50;;
77217;SDS011;66214;51.302;17.068;2024-03-23T15:11:53;4.40;;;1.60;;
77217;SDS011;66214;51.302;17.068;2024-03-23T15:14:24;4.90;;;1.90;;
77217;SDS011;66214;51.302;17.068;2024-03-23T15:16:52;8.30;;;3.40;;
77217;SDS011;66214;51.302;17.068;2024-03-23T15:19:24;8.10;;;2.40;;
77217;SDS011;66214;51.302;17.068;2024-03-23T15:21:52;4.60;;;2.00;;
77217;SDS011;66214;51.302;17.068;2024-03-23T15:24:20;4.90;;;1.70;;
77217;SDS011;66214;51.302;17.068;2024-03-23T15:26:48;3.70;;;1.70;;
77217;SDS011;66214;51.302;17.068;2024-03-23T15:29:17;5.20;;;2.40;;
77217;SDS011;66214;51.302;17.068;2024-03-23T15:31:46;4.30;;;1.60;;
77217;SDS011;66214;51.302;17.068;2024-03-23T15:34:14;4.20;;;1.70;;
77217;SDS011;66214;51.302;17.068;2024-03-23T15:36:43;6.20;;;1.60;;
77217;SDS011;66214;51.302;17.068;2024-03-23T15:39:12;4.40;;;1.70;;
77217;SDS011;66214;51.302;17.068;2024-03-23T15:41:44;4.40;;;1.80;;
77217;SDS011;66214;51.302;17.068;2024-03-23T15:44:13;4.50;;;1.70;;
77217;SDS011;66214;51.302;17.068;2024-03-23T15:46:41;4.80;;;2.10;;
77217;SDS011;66214;51.302;17.068;2024-03-23T15:49:09;4.30;;;2.10;;
77217;SDS011;66214;51.302;17.068;2024-03-23T15:51:37;4.20;;;2.00;;
77217;SDS011;66214;51.302;17.068;2024-03-23T15:54:07;7.20;;;3.20;;
77217;SDS011;66214;51.302;17.068;2024-03-23T15:56:39;7.00;;;2.70;;
77217;SDS011;66214;51.302;17.068;2024-03-23T15:59:07;4.90;;;2.00;;
77217;SDS011;66214;51.302;17.068;2024-03-23T16:01:35;4.30;;;1.80;;
77217;SDS011;66214;51.302;17.068;2024-03-23T16:04:03;5.90;;;2.60;;
77217;SDS011;66214;51.302;17.068;2024-03-23T16:06:31;5.30;;;2.20;;
77217;SDS011;66214;51.302;17.068;2024-03-23T16:12:31;4.90;;;1.90;;
77217;SDS011;66214;51.302;17.068;2024-03-23T16:14:58;4.80;;;1.80;;
77217;SDS011;66214;51.302;17.068;2024-03-23T16:17:27;4.20;;;1.60;;
77217;SDS011;66214;51.302;17.068;2024-03-23T16:19:55;5.50;;;1.50;;
77217;SDS011;66214;51.302;17.068;2024-03-23T16:22:23;4.60;;;1.60;;
77217;SDS011;66214;51.302;17.068;2024-03-23T16:24:51;4.60;;;1.70;;
77217;SDS011;66214;51.302;17.068;2024-03-23T16:27:19;5.50;;;2.00;;
77217;SDS011;66214;51.302;17.068;2024-03-23T16:29:47;6.40;;;2.10;;
77217;SDS011;66214;51.302;17.068;2024-03-23T16:38:25;6.00;;;2.20;;
77217;SDS011;66214;51.302;17.068;2024-03-23T16:44:25;5.60;;;1.70;;
77217;SDS011;66214;51.302;17.068;2024-03-23T16:46:54;5.90;;;2.00;;
77217;SDS011;66214;51.302;17.068;2024-03-23T16:49:21;5.00;;;2.40;;
77217;SDS011;66214;51.302;17.068;2024-03-23T16:51:50;5.60;;;1.80;;
77217;SDS011;66214;51.302;17.068;2024-03-23T16:57:34;8.20;;;4.80;;
77217;SDS011;66214;51.302;17.068;2024-03-23T17:00:05;8.50;;;4.00;;
77217;SDS011;66214;51.302;17.068;2024-03-23T17:03:58;5.30;;;2.00;;
77217;SDS011;66214;51.302;17.068;2024-03-23T17:06:28;5.30;;;2.20;;
77217;SDS011;66214;51.302;17.068;2024-03-23T17:08:56;7.20;;;3.00;;
77217;SDS011;66214;51.302;17.068;2024-03-23T17:11:24;6.30;;;2.30;;
77217;SDS011;66214;51.302;17.068;2024-03-23T17:13:52;11.60;;;5.80;;
77217;SDS011;66214;51.302;17.068;2024-03-23T17:16:26;11.30;;;4.10;;
77217;SDS011;66214;51.302;17.068;2024-03-23T17:18:58;10.50;;;3.70;;
77217;SDS011;66214;51.302;17.068;2024-03-23T17:21:27;7.00;;;2.90;;
77217;SDS011;66214;51.302;17.068;2024-03-23T17:23:55;90.30;;;21.30;;
77217;SDS011;66214;51.302;17.068;2024-03-23T17:26:25;18.40;;;6.50;;
77217;SDS011;66214;51.302;17.068;2024-03-23T17:28:53;23.70;;;6.40;;
77217;SDS011;66214;51.302;17.068;2024-03-23T17:34:44;7.40;;;2.60;;
77217;SDS011;66214;51.302;17.068;2024-03-23T17:37:12;8.40;;;3.20;;
77217;SDS011;66214;51.302;17.068;2024-03-23T17:39:40;16.40;;;4.70;;
77217;SDS011;66214;51.302;17.068;2024-03-23T17:42:08;6.60;;;2.30;;
77217;SDS011;66214;51.302;17.068;2024-03-23T17:44:37;7.60;;;2.30;;
77217;SDS011;66214;51.302;17.068;2024-03-23T17:47:06;5.60;;;1.80;;
77217;SDS011;66214;51.302;17.068;2024-03-23T17:49:34;8.60;;;2.70;;
77217;SDS011;66214;51.302;17.068;2024-03-23T17:52:09;8.20;;;2.60;;
77217;SDS011;66214;51.302;17.068;2024-03-23T17:54:40;13.40;;;3.40;;
77217;SDS011;66214;51.302;17.068;2024-03-23T17:57:12;23.10;;;6.30;;
77217;SDS011;66214;51.302;17.068;2024-03-23T17:59:40;10.70;;;3.30;;
77217;SDS011;66214;51.302;17.068;2024-03-23T18:02:07;17.70;;;5.50;;
77217;SDS011;66214;51.302;17.068;2024-03-23T18:04:35;10.20;;;3.90;;
77217;SDS011;66214;51.302;17.068;2024-03-23T18:07:03;9.50;;;3.20;;
77217;SDS011;66214;51.302;17.068;2024-03-23T18:09:32;14.00;;;4.30;;
77217;SDS011;66214;51.302;17.068;2024-03-23T18:11:59;6.90;;;3.00;;
77217;SDS011;66214;51.302;17.068;2024-03-23T18:14:28;16.60;;;4.60;;
77217;SDS011;66214;51.302;17.068;2024-03-23T18:16:56;20.30;;;6.70;;
77217;SDS011;66214;51.302;17.068;2024-03-23T18:19:24;9.00;;;2.80;;
77217;SDS011;66214;51.302;17.068;2024-03-23T18:21:53;7.60;;;2.50;;
77217;SDS011;66214;51.302;17.068;2024-03-23T18:24:22;9.20;;;2.30;;
77217;SDS011;66214;51.302;17.068;2024-03-23T18:26:50;6.90;;;2.40;;
77217;SDS011;66214;51.302;17.068;2024-03-23T18:29:19;9.30;;;3.50;;
77217;SDS011;66214;51.302;17.068;2024-03-23T18:31:48;8.60;;;3.20;;
77217;SDS011;66214;51.302;17.068;2024-03-23T18:34:17;10.90;;;3.70;;
77217;SDS011;66214;51.302;17.068;2024-03-23T18:36:45;16.40;;;4.90;;
77217;SDS011;66214;51.302;17.068;2024-03-23T18:39:13;85.20;;;21.90;;
77217;SDS011;66214;51.302;17.068;2024-03-23T18:41:42;16.70;;;5.60;;
77217;SDS011;66214;51.302;17.068;2024-03-23T18:44:10;53.20;;;17.00;;
77217;SDS011;66214;51.302;17.068;2024-03-23T18:46:38;29.00;;;9.60;;
77217;SDS011;66214;51.302;17.068;2024-03-23T18:49:06;71.10;;;22.20;;
77217;SDS011;66214;51.302;17.068;2024-03-23T18:51:35;24.00;;;8.30;;
77217;SDS011;66214;51.302;17.068;2024-03-23T18:54:03;58.50;;;18.90;;
77217;SDS011;66214;51.302;17.068;2024-03-23T18:56:31;37.40;;;13.30;;
77217;SDS011;66214;51.302;17.068;2024-03-23T18:58:59;87.00;;;27.90;;
77217;SDS011;66214;51.302;17.068;2024-03-23T19:01:27;65.40;;;21.60;;
77217;SDS011;66214;51.302;17.068;2024-03-23T19:03:55;27.60;;;10.00;;
77217;SDS011;66214;51.302;17.068;2024-03-23T19:06:23;38.40;;;14.10;;
77217;SDS011;66214;51.302;17.068;2024-03-23T19:08:51;57.90;;;21.30;;
77217;SDS011;66214;51.302;17.068;2024-03-23T19:11:19;65.40;;;23.50;;
77217;SDS011;66214;51.302;17.068;2024-03-23T19:13:47;91.80;;;31.50;;
77217;SDS011;66214;51.302;17.068;2024-03-23T19:16:15;82.00;;;30.90;;
77217;SDS011;66214;51.302;17.068;2024-03-23T19:18:43;69.90;;;28.20;;
77217;SDS011;66214;51.302;17.068;2024-03-23T19:21:13;50.60;;;20.40;;
77217;SDS011;66214;51.302;17.068;2024-03-23T19:23:41;42.60;;;16.50;;
77217;SDS011;66214;51.302;17.068;2024-03-23T19:26:09;39.10;;;14.80;;
77217;SDS011;66214;51.302;17.068;2024-03-23T19:28:37;38.20;;;16.50;;
77217;SDS011;66214;51.302;17.068;2024-03-23T19:31:05;56.00;;;22.50;;
77217;SDS011;66214;51.302;17.068;2024-03-23T19:33:35;57.50;;;21.30;;
77217;SDS011;66214;51.302;17.068;2024-03-23T19:36:04;52.50;;;19.00;;
77217;SDS011;66214;51.302;17.068;2024-03-23T19:38:32;47.20;;;17.00;;
77217;SDS011;66214;51.302;17.068;2024-03-23T19:41:00;36.80;;;14.90;;
77217;SDS011;66214;51.302;17.068;2024-03-23T19:43:28;32.90;;;11.70;;
77217;SDS011;66214;51.302;17.068;2024-03-23T19:46:03;31.80;;;13.50;;
77217;SDS011;66214;51.302;17.068;2024-03-23T19:48:31;56.50;;;19.40;;
77217;SDS011;66214;51.302;17.068;2024-03-23T19:50:59;68.90;;;22.30;;
77217;SDS011;66214;51.302;17.068;2024-03-23T19:53:28;120.90;;;33.70;;
77217;SDS011;66214;51.302;17.068;2024-03-23T19:55:57;90.30;;;29.60;;
77217;SDS011;66214;51.302;17.068;2024-03-23T19:58:28;145.10;;;42.50;;
77217;SDS011;66214;51.302;17.068;2024-03-23T20:00:56;192.80;;;56.00;;
77217;SDS011;66214;51.302;17.068;2024-03-23T20:03:24;147.10;;;39.90;;
77217;SDS011;66214;51.302;17.068;2024-03-23T20:05:58;200.00;;;52.90;;
77217;SDS011;66214;51.302;17.068;2024-03-23T20:08:26;113.90;;;30.90;;
77217;SDS011;66214;51.302;17.068;2024-03-23T20:10:54;64.90;;;20.70;;
77217;SDS011;66214;51.302;17.068;2024-03-23T20:13:22;99.30;;;27.30;;
77217;SDS011;66214;51.302;17.068;2024-03-23T20:15:58;49.00;;;16.20;;
77217;SDS011;66214;51.302;17.068;2024-03-23T20:18:29;23.90;;;8.50;;
77217;SDS011;66214;51.302;17.068;2024-03-23T20:21:01;12.70;;;5.60;;
77217;SDS011;66214;51.302;17.068;2024-03-23T20:23:31;12.20;;;4.80;;
77217;SDS011;66214;51.302;17.068;2024-03-23T20:25:59;13.40;;;4.50;;
77217;SDS011;66214;51.302;17.068;2024-03-23T20:28:27;14.80;;;5.70;;
77217;SDS011;66214;51.302;17.068;2024-03-23T20:31:00;10.90;;;4.40;;